sensor_id;sensor_type;location;lat;lon;timestamp;pressure;altitude;pressure_sealevel;temperature;humidity
56074;BME280;41950;55.840;37.442;2023-11-21T00:02:07;98931.06;;;-9.59;67.24
56074;BME280;41950;55.840;37.442;2023-11-21T00:04:32;98950.69;;;-9.69;67.38
56074;BME280;41950;55.840;37.442;2023-11-21T00:06:58;98915.72;;;-9.82;67.63
56074;BME280;41950;55.840;37.442;2023-11-21T00:09:24;99040.28;;;-9.02;67.60
56074;BME280;41950;55.840;37.442;2023-11-21T00:11:50;98949.81;;;-9.53;67.43
56074;BME280;41950;55.840;37.442;2023-11-21T00:14:16;98969.91;;;-9.53;67.72
56074;BME280;41950;55.840;37.442;2023-11-21T00:16:42;98943.22;;;-9.67;67.76
56074;BME280;41950;55.840;37.442;2023-11-21T00:19:07;99173.66;;;-8.31;68.17
56074;BME280;41950;55.840;37.442;2023-11-21T00:21:33;99010.31;;;-9.48;67.72
56074;BME280;41950;55.840;37.442;2023-11-21T00:23:59;99051.88;;;-9.05;68.03
56074;BME280;41950;55.840;37.442;2023-11-21T00:26:25;99126.34;;;-8.56;68.09
56074;BME280;41950;55.840;37.442;2023-11-21T00:28:51;99032.81;;;-9.17;67.79
56074;BME280;41950;55.840;37.442;2023-11-21T00:31:17;98966.47;;;-9.71;67.79
56074;BME280;41950;55.840;37.442;2023-11-21T00:33:43;98915.31;;;-9.89;67.95
56074;BME280;41950;55.840;37.442;2023-11-21T00:36:09;98925.78;;;-9.82;67.81
56074;BME280;41950;55.840;37.442;2023-11-21T00:38:36;98954.44;;;-9.60;68.01
56074;BME280;41950;55.840;37.442;2023-11-21T00:41:01;99119.31;;;-8.63;67.99
56074;BME280;41950;55.840;37.442;2023-11-21T00:43:28;98932.50;;;-9.81;67.50
56074;BME280;41950;55.840;37.442;2023-11-21T00:45:54;98982.63;;;-9.50;67.53
56074;BME280;41950;55.840;37.442;2023-11-21T00:48:20;99097.75;;;-8.92;67.91
56074;BME280;41950;55.840;37.442;2023-11-21T00:50:46;98871.00;;;-10.39;67.96
56074;BME280;41950;55.840;37.442;2023-11-21T00:53:12;99080.00;;;-9.12;68.95
56074;BME280;41950;55.840;37.442;2023-11-21T00:55:37;99108.81;;;-9.05;68.29
56074;BME280;41950;55.840;37.442;2023-11-21T00:58:06;98851.22;;;-10.49;68.15
56074;BME280;41950;55.840;37.442;2023-11-21T01:00:35;99071.38;;;-9.17;68.18
56074;BME280;41950;55.840;37.442;2023-11-21T01:03:01;99126.16;;;-8.77;68.36
56074;BME280;41950;55.840;37.442;2023-11-21T01:05:27;99002.34;;;-9.57;68.75
56074;BME280;41950;55.840;37.442;2023-11-21T01:07:53;98951.97;;;-9.77;68.06
56074;BME280;41950;55.840;37.442;2023-11-21T01:10:19;99000.91;;;-9.69;68.25
56074;BME280;41950;55.840;37.442;2023-11-21T01:12:46;99005.22;;;-9.66;67.72
56074;BME280;41950;55.840;37.442;2023-11-21T01:15:12;99183.91;;;-8.46;67.90
56074;BME280;41950;55.840;37.442;2023-11-21T01:17:38;98832.19;;;-10.62;67.92
56074;BME280;41950;55.840;37.442;2023-11-21T01:20:04;98826.84;;;-10.68;68.01
56074;BME280;41950;55.840;37.442;2023-11-21T01:22:39;99226.28;;;-8.54;68.40
56074;BME280;41950;55.840;37.442;2023-11-21T01:25:05;98803.13;;;-10.91;67.94
56074;BME280;41950;55.840;37.442;2023-11-21T01:27:33;98994.66;;;-9.77;67.98
56074;BME280;41950;55.840;37.442;2023-11-21T01:30:01;98949.28;;;-9.96;68.09
56074;BME280;41950;55.840;37.442;2023-11-21T01:32:29;99031.69;;;-9.56;68.16
56074;BME280;41950;55.840;37.442;2023-11-21T01:34:55;98885.50;;;-10.34;67.46
56074;BME280;41950;55.840;37.442;2023-11-21T01:37:21;98976.19;;;-9.93;67.10
56074;BME280;41950;55.840;37.442;2023-11-21T01:39:48;99059.56;;;-9.52;67.50
56074;BME280;41950;55.840;37.442;2023-11-21T01:42:14;98905.47;;;-10.51;67.16
56074;BME280;41950;55.840;37.442;2023-11-21T01:44:40;99124.47;;;-9.27;67.17
56074;BME280;41950;55.840;37.442;2023-11-21T01:47:06;99209.47;;;-8.71;67.46
56074;BME280;41950;55.840;37.442;2023-11-21T01:49:33;99009.69;;;-9.93;67.72
56074;BME280;41950;55.840;37.442;2023-11-21T01:52:00;99165.09;;;-9.03;67.56
56074;BME280;41950;55.840;37.442;2023-11-21T01:54:26;98849.09;;;-10.90;67.41
56074;BME280;41950;55.840;37.442;2023-11-21T01:56:52;99227.25;;;-8.68;67.12
56074;BME280;41950;55.840;37.442;2023-11-21T01:59:20;98954.31;;;-10.12;67.00
56074;BME280;41950;55.840;37.442;2023-11-21T02:01:49;98981.81;;;-10.14;67.52
56074;BME280;41950;55.840;37.442;2023-11-21T02:04:19;99217.47;;;-8.62;66.82
56074;BME280;41950;55.840;37.442;2023-11-21T02:06:46;99033.72;;;-9.82;65.46
56074;BME280;41950;55.840;37.442;2023-11-21T02:09:12;99042.50;;;-9.74;66.17
56074;BME280;41950;55.840;37.442;2023-11-21T02:11:40;99034.78;;;-9.93;66.08
56074;BME280;41950;55.840;37.442;2023-11-21T02:14:06;98785.13;;;-11.15;66.58
56074;BME280;41950;55.840;37.442;2023-11-21T02:16:35;99208.53;;;-8.73;65.94
56074;BME280;41950;55.840;37.442;2023-11-21T02:19:02;98851.28;;;-10.80;65.69
56074;BME280;41950;55.840;37.442;2023-11-21T02:21:31;99190.94;;;-8.73;65.39
56074;BME280;41950;55.840;37.442;2023-11-21T02:23:57;99047.84;;;-9.68;65.35
56074;BME280;41950;55.840;37.442;2023-11-21T02:26:23;98931.47;;;-10.49;65.12
56074;BME280;41950;55.840;37.442;2023-11-21T02:28:49;98889.28;;;-10.73;65.09
56074;BME280;41950;55.840;37.442;2023-11-21T02:31:15;99045.97;;;-9.72;65.00
56074;BME280;41950;55.840;37.442;2023-11-21T02:33:44;98902.06;;;-10.68;64.82
56074;BME280;41950;55.840;37.442;2023-11-21T02:36:10;99213.06;;;-8.82;65.64
56074;BME280;41950;55.840;37.442;2023-11-21T02:38:39;99166.66;;;-9.21;65.41
56074;BME280;41950;55.840;37.442;2023-11-21T02:41:05;98975.13;;;-10.46;65.33
56074;BME280;41950;55.840;37.442;2023-11-21T02:43:31;98921.84;;;-10.89;65.85
56074;BME280;41950;55.840;37.442;2023-11-21T02:45:57;99211.22;;;-9.02;66.45
56074;BME280;41950;55.840;37.442;2023-11-21T02:48:23;99225.66;;;-8.98;66.75
56074;BME280;41950;55.840;37.442;2023-11-21T02:50:51;99204.75;;;-9.14;66.91
56074;BME280;41950;55.840;37.442;2023-11-21T02:53:21;99081.69;;;-9.92;66.66
56074;BME280;41950;55.840;37.442;2023-11-21T02:55:49;98860.22;;;-11.16;67.12
56074;BME280;41950;55.840;37.442;2023-11-21T02:58:15;98882.47;;;-11.06;67.03
56074;BME280;41950;55.840;37.442;2023-11-21T03:00:41;99195.78;;;-9.25;67.32
56074;BME280;41950;55.840;37.442;2023-11-21T03:03:07;98858.47;;;-11.17;67.33
56074;BME280;41950;55.840;37.442;2023-11-21T03:05:33;98878.75;;;-11.13;67.39
56074;BME280;41950;55.840;37.442;2023-11-21T03:08:01;99134.16;;;-9.66;67.65
56074;BME280;41950;55.840;37.442;2023-11-21T03:10:27;99247.00;;;-9.07;68.06
56074;BME280;41950;55.840;37.442;2023-11-21T03:12:53;98961.03;;;-10.75;68.08
56074;BME280;41950;55.840;37.442;2023-11-21T03:15:19;99109.34;;;-9.76;68.43
56074;BME280;41950;55.840;37.442;2023-11-21T03:17:44;99040.94;;;-10.19;68.58
56074;BME280;41950;55.840;37.442;2023-11-21T03:20:11;99044.38;;;-10.17;68.41
56074;BME280;41950;55.840;37.442;2023-11-21T03:22:39;99172.50;;;-9.37;68.49
56074;BME280;41950;55.840;37.442;2023-11-21T03:25:06;99061.28;;;-9.98;68.85
56074;BME280;41950;55.840;37.442;2023-11-21T03:27:32;99091.19;;;-9.86;68.78
56074;BME280;41950;55.840;37.442;2023-11-21T03:29:58;99244.34;;;-9.10;69.21
56074;BME280;41950;55.840;37.442;2023-11-21T03:32:24;99022.28;;;-10.40;69.60
56074;BME280;41950;55.840;37.442;2023-11-21T03:34:57;98889.13;;;-11.07;69.90
56074;BME280;41950;55.840;37.442;2023-11-21T03:37:24;98928.97;;;-10.80;69.58
56074;BME280;41950;55.840;37.442;2023-11-21T03:39:50;98876.50;;;-11.08;69.49
56074;BME280;41950;55.840;37.442;2023-11-21T03:42:16;99226.09;;;-9.06;70.00
56074;BME280;41950;55.840;37.442;2023-11-21T03:44:42;99006.16;;;-10.44;69.88
56074;BME280;41950;55.840;37.442;2023-11-21T03:47:08;99142.78;;;-9.60;70.35
56074;BME280;41950;55.840;37.442;2023-11-21T03:49:34;99119.25;;;-9.79;70.67
56074;BME280;41950;55.840;37.442;2023-11-21T03:52:00;99027.19;;;-10.42;70.50
56074;BME280;41950;55.840;37.442;2023-11-21T03:54:26;98832.34;;;-11.37;70.29
56074;BME280;41950;55.840;37.442;2023-11-21T03:56:51;99111.16;;;-9.73;70.23
56074;BME280;41950;55.840;37.442;2023-11-21T03:59:17;99103.31;;;-9.79;70.17
56074;BME280;41950;55.840;37.442;2023-11-21T04:01:49;99011.47;;;-10.39;70.37
56074;BME280;41950;55.840;37.442;2023-11-21T04:04:15;98888.19;;;-11.24;70.42
56074;BME280;41950;55.840;37.442;2023-11-21T04:06:41;99258.97;;;-8.86;70.63
56074;BME280;41950;55.840;37.442;2023-11-21T04:09:10;98888.03;;;-10.96;69.78
56074;BME280;41950;55.840;37.442;2023-11-21T04:11:35;98910.94;;;-10.89;70.01
56074;BME280;41950;55.840;37.442;2023-11-21T04:14:01;98971.91;;;-10.74;70.15
56074;BME280;41950;55.840;37.442;2023-11-21T04:16:27;98987.81;;;-10.59;70.28
56074;BME280;41950;55.840;37.442;2023-11-21T04:18:53;99158.66;;;-9.61;70.71
56074;BME280;41950;55.840;37.442;2023-11-21T04:21:18;99118.31;;;-9.95;70.74
56074;BME280;41950;55.840;37.442;2023-11-21T04:23:44;98894.00;;;-11.39;70.88
56074;BME280;41950;55.840;37.442;2023-11-21T04:26:13;98921.53;;;-11.10;71.18
56074;BME280;41950;55.840;37.442;2023-11-21T04:28:38;99208.13;;;-9.29;71.28
56074;BME280;41950;55.840;37.442;2023-11-21T04:31:04;99244.97;;;-9.14;70.98
56074;BME280;41950;55.840;37.442;2023-11-21T04:33:30;98998.78;;;-10.57;70.89
56074;BME280;41950;55.840;37.442;2023-11-21T04:35:57;98983.66;;;-10.58;70.96
56074;BME280;41950;55.840;37.442;2023-11-21T04:38:22;98958.66;;;-10.88;70.90
56074;BME280;41950;55.840;37.442;2023-11-21T04:40:51;99023.72;;;-10.44;71.01
56074;BME280;41950;55.840;37.442;2023-11-21T04:43:16;99065.50;;;-10.13;70.92
56074;BME280;41950;55.840;37.442;2023-11-21T04:45:42;99226.91;;;-9.38;70.98
56074;BME280;41950;55.840;37.442;2023-11-21T04:48:10;99124.38;;;-9.92;70.94
56074;BME280;41950;55.840;37.442;2023-11-21T04:50:36;99112.69;;;-9.91;70.82
56074;BME280;41950;55.840;37.442;2023-11-21T04:53:02;99133.28;;;-9.82;70.84
56074;BME280;41950;55.840;37.442;2023-11-21T04:55:28;99165.78;;;-9.69;70.90
56074;BME280;41950;55.840;37.442;2023-11-21T04:57:54;99121.84;;;-9.92;70.58
56074;BME280;41950;55.840;37.442;2023-11-21T05:00:20;99053.56;;;-10.34;70.81
56074;BME280;41950;55.840;37.442;2023-11-21T05:02:47;98945.00;;;-10.93;70.62
56074;BME280;41950;55.840;37.442;2023-11-21T05:05:15;99134.88;;;-9.99;70.68
56074;BME280;41950;55.840;37.442;2023-11-21T05:07:41;98954.09;;;-10.95;70.58
56074;BME280;41950;55.840;37.442;2023-11-21T05:10:08;99163.72;;;-9.76;70.42
56074;BME280;41950;55.840;37.442;2023-11-21T05:12:38;99151.41;;;-9.72;70.64
56074;BME280;41950;55.840;37.442;2023-11-21T05:15:04;99084.94;;;-10.25;70.70
56074;BME280;41950;55.840;37.442;2023-11-21T05:17:39;98888.88;;;-11.26;70.92
56074;BME280;41950;55.840;37.442;2023-11-21T05:20:09;98984.03;;;-10.82;71.25
56074;BME280;41950;55.840;37.442;2023-11-21T05:22:35;99137.63;;;-9.63;71.00
56074;BME280;41950;55.840;37.442;2023-11-21T05:25:02;99017.34;;;-10.39;71.06
56074;BME280;41950;55.840;37.442;2023-11-21T05:27:30;98932.72;;;-10.88;71.42
56074;BME280;41950;55.840;37.442;2023-11-21T05:29:56;99080.44;;;-10.00;70.53
56074;BME280;41950;55.840;37.442;2023-11-21T05:32:24;99143.81;;;-9.73;70.64
56074;BME280;41950;55.840;37.442;2023-11-21T05:34:50;98964.34;;;-10.90;71.20
56074;BME280;41950;55.840;37.442;2023-11-21T05:37:16;98948.25;;;-10.79;71.28
56074;BME280;41950;55.840;37.442;2023-11-21T05:39:43;98903.84;;;-10.97;70.63
56074;BME280;41950;55.840;37.442;2023-11-21T05:42:09;99128.09;;;-9.85;71.31
56074;BME280;41950;55.840;37.442;2023-11-21T05:44:37;99253.09;;;-9.03;71.25
56074;BME280;41950;55.840;37.442;2023-11-21T05:47:06;99077.91;;;-10.00;71.35
56074;BME280;41950;55.840;37.442;2023-11-21T05:49:33;98947.00;;;-10.71;71.26
56074;BME280;41950;55.840;37.442;2023-11-21T05:51:59;99010.59;;;-10.40;71.29
56074;BME280;41950;55.840;37.442;2023-11-21T05:54:26;99131.53;;;-9.52;70.46
56074;BME280;41950;55.840;37.442;2023-11-21T05:56:52;98948.56;;;-10.73;71.14
56074;BME280;41950;55.840;37.442;2023-11-21T05:59:20;99128.50;;;-9.61;71.11
56074;BME280;41950;55.840;37.442;2023-11-21T06:01:49;98890.84;;;-11.06;71.10
56074;BME280;41950;55.840;37.442;2023-11-21T06:04:17;99182.00;;;-9.31;70.99
56074;BME280;41950;55.840;37.442;2023-11-21T06:06:48;99307.09;;;-8.64;70.53
56074;BME280;41950;55.840;37.442;2023-11-21T06:09:16;98967.22;;;-10.68;70.15
56074;BME280;41950;55.840;37.442;2023-11-21T06:11:42;99144.09;;;-9.52;70.12
56074;BME280;41950;55.840;37.442;2023-11-21T06:14:14;99046.88;;;-10.02;70.88
56074;BME280;41950;55.840;37.442;2023-11-21T06:16:43;99140.78;;;-9.51;70.10
56074;BME280;41950;55.840;37.442;2023-11-21T06:19:13;99088.09;;;-9.66;69.57
56074;BME280;41950;55.840;37.442;2023-11-21T06:21:46;99301.41;;;-8.27;69.41
56074;BME280;41950;55.840;37.442;2023-11-21T06:24:45;99309.28;;;-8.21;68.71
56074;BME280;41950;55.840;37.442;2023-11-21T06:27:20;99037.88;;;-9.66;68.86
56074;BME280;41950;55.840;37.442;2023-11-21T06:29:52;98913.59;;;-10.55;68.60
56074;BME280;41950;55.840;37.442;2023-11-21T06:32:46;99043.50;;;-9.86;67.89
56074;BME280;41950;55.840;37.442;2023-11-21T06:35:44;99028.19;;;-9.91;68.24
56074;BME280;41950;55.840;37.442;2023-11-21T06:38:32;99099.81;;;-9.50;68.16
56074;BME280;41950;55.840;37.442;2023-11-21T06:40:58;99218.34;;;-8.61;68.67
56074;BME280;41950;55.840;37.442;2023-11-21T06:43:30;99124.63;;;-9.08;67.51
56074;BME280;41950;55.840;37.442;2023-11-21T06:45:59;98950.94;;;-10.13;67.79
56074;BME280;41950;55.840;37.442;2023-11-21T06:48:34;99108.44;;;-9.13;67.68
56074;BME280;41950;55.840;37.442;2023-11-21T06:51:03;98952.84;;;-10.09;67.03
56074;BME280;41950;55.840;37.442;2023-11-21T06:53:29;99218.41;;;-8.44;67.25
56074;BME280;41950;55.840;37.442;2023-11-21T06:55:55;98946.38;;;-10.20;66.22
56074;BME280;41950;55.840;37.442;2023-11-21T06:58:21;98935.59;;;-10.35;66.44
56074;BME280;41950;55.840;37.442;2023-11-21T07:00:47;99093.06;;;-9.35;66.50
56074;BME280;41950;55.840;37.442;2023-11-21T07:03:15;99217.88;;;-8.87;66.67
56074;BME280;41950;55.840;37.442;2023-11-21T07:05:47;98966.75;;;-10.14;66.64
56074;BME280;41950;55.840;37.442;2023-11-21T07:08:17;98961.38;;;-10.05;66.16
56074;BME280;41950;55.840;37.442;2023-11-21T07:10:48;99316.13;;;-7.85;66.37
56074;BME280;41950;55.840;37.442;2023-11-21T07:13:47;98967.81;;;-9.94;66.07
56074;BME280;41950;55.840;37.442;2023-11-21T07:16:13;99115.28;;;-9.10;66.06
56074;BME280;41950;55.840;37.442;2023-11-21T07:18:54;98914.75;;;-10.34;65.69
56074;BME280;41950;55.840;37.442;2023-11-21T07:25:14;99350.81;;;-8.13;66.69
56074;BME280;41950;55.840;37.442;2023-11-21T07:28:06;98965.94;;;-10.31;67.07
56074;BME280;41950;55.840;37.442;2023-11-21T07:34:24;98971.03;;;-10.13;66.89
56074;BME280;41950;55.840;37.442;2023-11-21T07:37:20;99105.00;;;-9.15;66.23
56074;BME280;41950;55.840;37.442;2023-11-21T07:39:59;99178.50;;;-8.86;66.86
56074;BME280;41950;55.840;37.442;2023-11-21T07:42:52;98956.66;;;-9.99;66.07
56074;BME280;41950;55.840;37.442;2023-11-21T07:46:14;99289.97;;;-8.04;66.40
56074;BME280;41950;55.840;37.442;2023-11-21T07:48:57;99224.78;;;-8.32;66.14
56074;BME280;41950;55.840;37.442;2023-11-21T07:51:22;99338.13;;;-7.64;66.37
56074;BME280;41950;55.840;37.442;2023-11-21T07:53:50;99150.22;;;-8.82;65.50
56074;BME280;41950;55.840;37.442;2023-11-21T07:56:20;98960.66;;;-9.86;65.71
56074;BME280;41950;55.840;37.442;2023-11-21T07:58:47;99350.38;;;-7.54;66.12
56074;BME280;41950;55.840;37.442;2023-11-21T08:01:13;98984.19;;;-9.68;65.50
56074;BME280;41950;55.840;37.442;2023-11-21T08:03:39;99093.06;;;-9.19;66.14
56074;BME280;41950;55.840;37.442;2023-11-21T08:06:08;99170.03;;;-8.72;66.30
56074;BME280;41950;55.840;37.442;2023-11-21T08:08:34;98978.72;;;-9.77;66.17
56074;BME280;41950;55.840;37.442;2023-11-21T08:11:00;99101.47;;;-9.02;66.42
56074;BME280;41950;55.840;37.442;2023-11-21T08:13:30;98979.50;;;-9.78;65.71
56074;BME280;41950;55.840;37.442;2023-11-21T08:15:57;99212.19;;;-8.50;65.47
56074;BME280;41950;55.840;37.442;2023-11-21T08:18:27;99162.56;;;-8.70;65.75
56074;BME280;41950;55.840;37.442;2023-11-21T08:20:54;99052.31;;;-9.29;65.83
56074;BME280;41950;55.840;37.442;2023-11-21T08:23:20;99328.63;;;-7.52;65.75
56074;BME280;41950;55.840;37.442;2023-11-21T08:25:51;99309.34;;;-7.52;66.13
56074;BME280;41950;55.840;37.442;2023-11-21T08:28:17;99139.47;;;-8.46;66.17
56074;BME280;41950;55.840;37.442;2023-11-21T08:30:43;99177.28;;;-8.26;66.23
56074;BME280;41950;55.840;37.442;2023-11-21T08:33:12;98967.84;;;-9.44;66.19
56074;BME280;41950;55.840;37.442;2023-11-21T08:35:38;99029.44;;;-9.18;65.98
56074;BME280;41950;55.840;37.442;2023-11-21T08:38:04;99165.06;;;-8.36;66.00
56074;BME280;41950;55.840;37.442;2023-11-21T08:40:31;99096.94;;;-8.75;66.36
56074;BME280;41950;55.840;37.442;2023-11-21T08:42:58;98923.72;;;-9.73;66.56
56074;BME280;41950;55.840;37.442;2023-11-21T08:45:26;98904.91;;;-9.81;66.61
56074;BME280;41950;55.840;37.442;2023-11-21T08:47:53;99048.34;;;-9.08;66.95
56074;BME280;41950;55.840;37.442;2023-11-21T08:50:19;98958.38;;;-9.49;67.08
56074;BME280;41950;55.840;37.442;2023-11-21T08:52:45;99017.75;;;-9.17;67.32
56074;BME280;41950;55.840;37.442;2023-11-21T08:55:12;98952.72;;;-9.61;67.80
56074;BME280;41950;55.840;37.442;2023-11-21T08:57:39;99033.75;;;-9.15;68.17
56074;BME280;41950;55.840;37.442;2023-11-21T09:00:07;98931.81;;;-9.78;68.45
56074;BME280;41950;55.840;37.442;2023-11-21T09:02:37;99182.31;;;-8.44;69.58
56074;BME280;41950;55.840;37.442;2023-11-21T09:05:08;99119.88;;;-8.51;70.04
56074;BME280;41950;55.840;37.442;2023-11-21T09:07:35;99091.63;;;-8.63;69.00
56074;BME280;41950;55.840;37.442;2023-11-21T09:10:02;99134.28;;;-8.49;68.31
56074;BME280;41950;55.840;37.442;2023-11-21T09:12:29;99022.97;;;-9.30;69.19
56074;BME280;41950;55.840;37.442;2023-11-21T09:15:03;99141.16;;;-8.79;68.59
56074;BME280;41950;55.840;37.442;2023-11-21T09:17:40;98995.47;;;-9.60;68.50
56074;BME280;41950;55.840;37.442;2023-11-21T09:20:11;99146.97;;;-8.80;68.46
56074;BME280;41950;55.840;37.442;2023-11-21T09:22:37;99300.59;;;-7.76;68.41
56074;BME280;41950;55.840;37.442;2023-11-21T09:25:06;99348.38;;;-7.61;69.02
56074;BME280;41950;55.840;37.442;2023-11-21T09:27:34;98958.94;;;-9.87;69.85
56074;BME280;41950;55.840;37.442;2023-11-21T09:30:11;98993.59;;;-9.64;69.02
56074;BME280;41950;55.840;37.442;2023-11-21T09:32:39;98940.41;;;-9.73;68.90
56074;BME280;41950;55.840;37.442;2023-11-21T09:35:06;98968.13;;;-9.55;68.63
56074;BME280;41950;55.840;37.442;2023-11-21T09:37:35;98963.69;;;-9.59;69.63
56074;BME280;41950;55.840;37.442;2023-11-21T09:40:04;99030.72;;;-9.26;69.71
56074;BME280;41950;55.840;37.442;2023-11-21T09:42:39;99077.84;;;-8.88;70.39
56074;BME280;41950;55.840;37.442;2023-11-21T09:45:26;99298.53;;;-7.49;71.18
56074;BME280;41950;55.840;37.442;2023-11-21T09:47:55;99176.00;;;-8.18;70.41
56074;BME280;41950;55.840;37.442;2023-11-21T09:50:22;99107.66;;;-8.61;70.41
56074;BME280;41950;55.840;37.442;2023-11-21T09:52:58;99143.31;;;-8.52;70.31
56074;BME280;41950;55.840;37.442;2023-11-21T09:55:32;99249.63;;;-7.70;69.81
56074;BME280;41950;55.840;37.442;2023-11-21T09:58:24;99334.84;;;-7.28;70.49
56074;BME280;41950;55.840;37.442;2023-11-21T10:01:16;99235.81;;;-7.79;70.33
56074;BME280;41950;55.840;37.442;2023-11-21T10:03:56;98927.59;;;-9.61;69.41
56074;BME280;41950;55.840;37.442;2023-11-21T10:06:28;98985.03;;;-9.35;68.97
56074;BME280;41950;55.840;37.442;2023-11-21T10:09:21;98988.41;;;-9.35;68.42
56074;BME280;41950;55.840;37.442;2023-11-21T10:12:07;98985.88;;;-9.35;67.80
56074;BME280;41950;55.840;37.442;2023-11-21T10:14:41;98995.22;;;-9.32;67.78
56074;BME280;41950;55.840;37.442;2023-11-21T10:17:15;98953.69;;;-9.76;68.44
56074;BME280;41950;55.840;37.442;2023-11-21T10:19:49;99060.75;;;-8.95;68.29
56074;BME280;41950;55.840;37.442;2023-11-21T10:22:30;99135.56;;;-8.57;68.15
56074;BME280;41950;55.840;37.442;2023-11-21T10:25:19;99026.91;;;-9.01;68.25
56074;BME280;41950;55.840;37.442;2023-11-21T10:27:48;99137.25;;;-8.39;67.92
56074;BME280;41950;55.840;37.442;2023-11-21T10:30:20;98941.16;;;-9.42;67.48
56074;BME280;41950;55.840;37.442;2023-11-21T10:32:58;99221.22;;;-7.86;67.54
56074;BME280;41950;55.840;37.442;2023-11-21T10:35:24;99221.22;;;-7.86;67.28
56074;BME280;41950;55.840;37.442;2023-11-21T10:38:02;99014.22;;;-9.21;67.24
56074;BME280;41950;55.840;37.442;2023-11-21T10:40:36;99042.16;;;-9.15;67.64
56074;BME280;41950;55.840;37.442;2023-11-21T10:43:09;99339.38;;;-7.21;67.58
56074;BME280;41950;55.840;37.442;2023-11-21T10:45:42;99150.44;;;-8.26;67.39
56074;BME280;41950;55.840;37.442;2023-11-21T10:48:16;99079.00;;;-8.81;66.50
56074;BME280;41950;55.840;37.442;2023-11-21T10:50:57;99010.53;;;-9.27;65.90
56074;BME280;41950;55.840;37.442;2023-11-21T10:53:35;99224.31;;;-7.91;66.37
56074;BME280;41950;55.840;37.442;2023-11-21T10:56:23;99341.69;;;-7.25;66.49
56074;BME280;41950;55.840;37.442;2023-11-21T10:59:12;99021.38;;;-9.28;66.57
56074;BME280;41950;55.840;37.442;2023-11-21T11:01:45;99038.53;;;-9.03;66.67
56074;BME280;41950;55.840;37.442;2023-11-21T11:04:18;98996.63;;;-9.21;65.79
56074;BME280;41950;55.840;37.442;2023-11-21T11:06:51;99021.13;;;-9.33;65.01
56074;BME280;41950;55.840;37.442;2023-11-21T11:09:25;98982.84;;;-9.45;65.33
56074;BME280;41950;55.840;37.442;2023-11-21T11:11:54;99159.75;;;-8.43;65.87
56074;BME280;41950;55.840;37.442;2023-11-21T11:14:29;98978.19;;;-9.38;65.78
56074;BME280;41950;55.840;37.442;2023-11-21T11:17:01;99236.03;;;-7.92;65.86
56074;BME280;41950;55.840;37.442;2023-11-21T11:19:39;99123.63;;;-8.61;66.21
56074;BME280;41950;55.840;37.442;2023-11-21T11:25:25;99151.97;;;-8.47;66.18
56074;BME280;41950;55.840;37.442;2023-11-21T11:28:04;99020.75;;;-9.24;65.63
56074;BME280;41950;55.840;37.442;2023-11-21T11:38:34;99170.81;;;-8.73;66.26
56074;BME280;41950;55.840;37.442;2023-11-21T11:41:08;99176.66;;;-8.56;65.83
56074;BME280;41950;55.840;37.442;2023-11-21T11:43:35;99084.47;;;-9.06;66.55
56074;BME280;41950;55.840;37.442;2023-11-21T11:46:13;99151.28;;;-8.77;65.23
56074;BME280;41950;55.840;37.442;2023-11-21T11:48:39;99257.88;;;-8.25;65.58
56074;BME280;41950;55.840;37.442;2023-11-21T11:51:15;99109.72;;;-9.21;65.95
56074;BME280;41950;55.840;37.442;2023-11-21T11:53:46;99262.91;;;-8.25;65.84
56074;BME280;41950;55.840;37.442;2023-11-21T11:58:58;99163.50;;;-8.85;66.12
56074;BME280;41950;55.840;37.442;2023-11-21T12:01:26;99145.38;;;-8.95;66.33
56074;BME280;41950;55.840;37.442;2023-11-21T12:06:43;99057.28;;;-9.47;65.97
56074;BME280;41950;55.840;37.442;2023-11-21T12:09:20;99148.50;;;-9.16;66.26
56074;BME280;41950;55.840;37.442;2023-11-21T12:11:48;99226.81;;;-8.59;65.97
56074;BME280;41950;55.840;37.442;2023-11-21T12:14:15;99198.22;;;-8.78;66.17
56074;BME280;41950;55.840;37.442;2023-11-21T12:16:42;99390.72;;;-7.54;66.15
56074;BME280;41950;55.840;37.442;2023-11-21T12:19:12;99255.22;;;-8.46;66.64
56074;BME280;41950;55.840;37.442;2023-11-21T12:21:38;99389.94;;;-7.69;67.34
56074;BME280;41950;55.840;37.442;2023-11-21T12:24:07;99253.41;;;-8.64;67.18
56074;BME280;41950;55.840;37.442;2023-11-21T12:26:39;99063.78;;;-9.67;67.32
56074;BME280;41950;55.840;37.442;2023-11-21T12:29:06;99090.22;;;-9.41;67.10
56074;BME280;41950;55.840;37.442;2023-11-21T12:31:33;99163.97;;;-9.08;67.25
56074;BME280;41950;55.840;37.442;2023-11-21T12:34:05;99047.91;;;-9.66;66.83
56074;BME280;41950;55.840;37.442;2023-11-21T12:36:32;99104.13;;;-9.48;67.07
56074;BME280;41950;55.840;37.442;2023-11-21T12:38:59;99087.09;;;-9.53;67.68
56074;BME280;41950;55.840;37.442;2023-11-21T12:41:25;99194.94;;;-8.93;67.48
56074;BME280;41950;55.840;37.442;2023-11-21T12:43:57;99125.72;;;-9.51;67.46
56074;BME280;41950;55.840;37.442;2023-11-21T12:46:26;99234.78;;;-8.84;67.13
56074;BME280;41950;55.840;37.442;2023-11-21T12:48:55;99140.94;;;-9.48;66.86
56074;BME280;41950;55.840;37.442;2023-11-21T12:51:22;99189.50;;;-9.17;67.34
56074;BME280;41950;55.840;37.442;2023-11-21T12:53:48;99273.38;;;-8.67;67.65
56074;BME280;41950;55.840;37.442;2023-11-21T12:59:28;99054.94;;;-9.91;66.31
56074;BME280;41950;55.840;37.442;2023-11-21T13:01:57;99200.66;;;-9.12;66.62
56074;BME280;41950;55.840;37.442;2023-11-21T13:04:32;99347.34;;;-8.31;66.76
56074;BME280;41950;55.840;37.442;2023-11-21T13:07:05;99433.56;;;-7.70;66.45
56074;BME280;41950;55.840;37.442;2023-11-21T13:09:40;99087.16;;;-9.68;66.18
56074;BME280;41950;55.840;37.442;2023-11-21T13:12:07;99167.50;;;-9.21;66.14
56074;BME280;41950;55.840;37.442;2023-11-21T13:14:34;99369.66;;;-8.05;66.45
56074;BME280;41950;55.840;37.442;2023-11-21T13:17:00;99071.50;;;-9.95;66.68
56074;BME280;41950;55.840;37.442;2023-11-21T13:19:29;99144.63;;;-9.42;66.43
56074;BME280;41950;55.840;37.442;2023-11-21T13:21:55;99447.50;;;-7.77;67.08
56074;BME280;41950;55.840;37.442;2023-11-21T13:24:21;99320.88;;;-8.41;66.96
56074;BME280;41950;55.840;37.442;2023-11-21T13:26:47;99198.28;;;-9.09;67.29
56074;BME280;41950;55.840;37.442;2023-11-21T13:29:14;99241.38;;;-8.86;67.33